sensor_id;sensor_type;location;lat;lon;timestamp;pressure;altitude;pressure_sealevel;temperature;humidity
40285;BME280;25997;50.214;19.354;2023-02-12T00:02:14;99005.72;;;3.26;72.17
40285;BME280;25997;50.214;19.354;2023-02-12T00:05:18;99005.72;;;3.26;72.12
40285;BME280;25997;50.214;19.354;2023-02-12T00:08:20;99009.41;;;3.30;71.73
40285;BME280;25997;50.214;19.354;2023-02-12T00:11:24;99000.53;;;3.26;72.10
40285;BME280;25997;50.214;19.354;2023-02-12T00:14:27;99006.91;;;3.31;71.84
40285;BME280;25997;50.214;19.354;2023-02-12T00:17:29;99002.22;;;3.26;71.98
40285;BME280;25997;50.214;19.354;2023-02-12T00:20:33;99001.31;;;3.25;72.05
40285;BME280;25997;50.214;19.354;2023-02-12T00:23:38;99001.63;;;3.30;72.08
40285;BME280;25997;50.214;19.354;2023-02-12T00:26:41;99005.81;;;3.28;72.12
40285;BME280;25997;50.214;19.354;2023-02-12T00:29:44;99001.53;;;3.28;71.92
40285;BME280;25997;50.214;19.354;2023-02-12T00:32:46;99008.72;;;3.32;71.64
40285;BME280;25997;50.214;19.354;2023-02-12T00:35:55;99012.59;;;3.26;71.78
40285;BME280;25997;50.214;19.354;2023-02-12T00:38:59;99002.00;;;3.23;71.77
40285;BME280;25997;50.214;19.354;2023-02-12T00:42:01;99004.25;;;3.18;71.71
40285;BME280;25997;50.214;19.354;2023-02-12T00:45:04;99006.44;;;3.12;72.11
40285;BME280;25997;50.214;19.354;2023-02-12T00:48:07;99017.28;;;3.07;72.61
40285;BME280;25997;50.214;19.354;2023-02-12T00:51:11;99026.59;;;3.16;72.27
40285;BME280;25997;50.214;19.354;2023-02-12T00:54:14;99026.59;;;3.16;72.23
40285;BME280;25997;50.214;19.354;2023-02-12T00:57:18;99017.03;;;3.15;72.13
40285;BME280;25997;50.214;19.354;2023-02-12T01:00:21;99023.25;;;3.17;72.25
40285;BME280;25997;50.214;19.354;2023-02-12T01:03:24;99022.56;;;3.20;72.46
40285;BME280;25997;50.214;19.354;2023-02-12T01:06:28;99023.66;;;3.23;72.20
40285;BME280;25997;50.214;19.354;2023-02-12T01:09:31;99027.75;;;3.20;72.48
40285;BME280;25997;50.214;19.354;2023-02-12T01:12:34;99031.44;;;3.23;72.18
40285;BME280;25997;50.214;19.354;2023-02-12T01:15:37;99032.34;;;3.24;72.14
40285;BME280;25997;50.214;19.354;2023-02-12T01:18:39;99028.25;;;3.27;72.13
40285;BME280;25997;50.214;19.354;2023-02-12T01:21:43;99031.88;;;3.29;71.92
40285;BME280;25997;50.214;19.354;2023-02-12T01:24:46;99034.47;;;3.29;71.81
40285;BME280;25997;50.214;19.354;2023-02-12T01:27:51;99033.44;;;3.27;71.99
40285;BME280;25997;50.214;19.354;2023-02-12T01:30:54;99032.44;;;3.25;72.12
40285;BME280;25997;50.214;19.354;2023-02-12T01:33:58;99049.13;;;3.29;72.08
40285;BME280;25997;50.214;19.354;2023-02-12T01:37:02;99040.56;;;3.30;72.08
40285;BME280;25997;50.214;19.354;2023-02-12T01:40:07;99047.56;;;3.31;71.96
40285;BME280;25997;50.214;19.354;2023-02-12T01:43:11;99044.84;;;3.29;72.31
40285;BME280;25997;50.214;19.354;2023-02-12T01:46:14;99057.03;;;3.30;72.08
40285;BME280;25997;50.214;19.354;2023-02-12T01:49:20;99048.25;;;3.28;72.30
40285;BME280;25997;50.214;19.354;2023-02-12T01:52:27;99054.13;;;3.26;72.21
40285;BME280;25997;50.214;19.354;2023-02-12T01:55:31;99068.09;;;3.28;72.10
40285;BME280;25997;50.214;19.354;2023-02-12T01:58:37;99067.63;;;3.33;72.08
40285;BME280;25997;50.214;19.354;2023-02-12T02:01:45;99065.41;;;3.26;72.21
40285;BME280;25997;50.214;19.354;2023-02-12T02:04:49;99077.25;;;3.23;72.29
40285;BME280;25997;50.214;19.354;2023-02-12T02:07:54;99080.16;;;3.27;72.06
40285;BME280;25997;50.214;19.354;2023-02-12T02:10:56;99074.06;;;3.27;71.91
40285;BME280;25997;50.214;19.354;2023-02-12T02:14:00;99089.88;;;3.30;71.88
40285;BME280;25997;50.214;19.354;2023-02-12T02:17:38;99090.78;;;3.30;71.70
40285;BME280;25997;50.214;19.354;2023-02-12T02:21:07;99081.97;;;3.28;71.78
40285;BME280;25997;50.214;19.354;2023-02-12T02:24:36;99094.28;;;3.31;71.64
40285;BME280;25997;50.214;19.354;2023-02-12T02:27:57;99097.56;;;3.28;71.66
40285;BME280;25997;50.214;19.354;2023-02-12T02:31:07;99099.34;;;3.29;71.57
40285;BME280;25997;50.214;19.354;2023-02-12T02:34:19;99097.31;;;3.25;71.68
40285;BME280;25997;50.214;19.354;2023-02-12T02:37:27;99100.50;;;3.21;71.71
40285;BME280;25997;50.214;19.354;2023-02-12T02:40:36;99108.97;;;3.19;71.82
40285;BME280;25997;50.214;19.354;2023-02-12T02:43:42;99115.97;;;3.20;71.59
40285;BME280;25997;50.214;19.354;2023-02-12T02:46:49;99123.53;;;3.17;71.69
40285;BME280;25997;50.214;19.354;2023-02-12T02:49:55;99131.41;;;3.18;71.40
40285;BME280;25997;50.214;19.354;2023-02-12T02:53:01;99122.59;;;3.16;71.68
40285;BME280;25997;50.214;19.354;2023-02-12T02:56:06;99128.81;;;3.18;71.58
40285;BME280;25997;50.214;19.354;2023-02-12T02:59:13;99144.50;;;3.20;71.61
40285;BME280;25997;50.214;19.354;2023-02-12T03:02:23;99138.41;;;3.19;71.57
40285;BME280;25997;50.214;19.354;2023-02-12T03:05:29;99155.91;;;3.22;71.62
40285;BME280;25997;50.214;19.354;2023-02-12T03:08:36;99156.78;;;3.22;71.51
40285;BME280;25997;50.214;19.354;2023-02-12T03:11:41;99150.91;;;3.25;71.43
40285;BME280;25997;50.214;19.354;2023-02-12T03:14:45;99156.91;;;3.24;71.79
40285;BME280;25997;50.214;19.354;2023-02-12T03:17:51;99164.78;;;3.25;71.48
40285;BME280;25997;50.214;19.354;2023-02-12T03:20:58;99162.53;;;3.30;71.45
40285;BME280;25997;50.214;19.354;2023-02-12T03:24:09;99180.03;;;3.32;71.44
40285;BME280;25997;50.214;19.354;2023-02-12T03:27:16;99188.59;;;3.31;71.35
40285;BME280;25997;50.214;19.354;2023-02-12T03:30:21;99186.66;;;3.29;71.41
40285;BME280;25997;50.214;19.354;2023-02-12T03:33:28;99190.16;;;3.29;71.42
40285;BME280;25997;50.214;19.354;2023-02-12T03:36:41;99196.28;;;3.30;71.35
40285;BME280;25997;50.214;19.354;2023-02-12T03:39:51;99207.56;;;3.30;71.59
40285;BME280;25997;50.214;19.354;2023-02-12T03:42:58;99224.03;;;3.31;71.48
40285;BME280;25997;50.214;19.354;2023-02-12T03:46:09;99216.34;;;3.32;71.37
40285;BME280;25997;50.214;19.354;2023-02-12T03:49:19;99235.31;;;3.31;71.44
40285;BME280;25997;50.214;19.354;2023-02-12T03:52:25;99233.50;;;3.30;71.31
40285;BME280;25997;50.214;19.354;2023-02-12T03:55:29;99243.31;;;3.23;71.63
40285;BME280;25997;50.214;19.354;2023-02-12T03:58:34;99235.31;;;3.20;71.61
40285;BME280;25997;50.214;19.354;2023-02-12T04:01:38;99248.31;;;3.20;71.54
40285;BME280;25997;50.214;19.354;2023-02-12T04:04:43;99243.78;;;3.17;71.56
40285;BME280;25997;50.214;19.354;2023-02-12T04:07:46;99249.75;;;3.16;71.32
40285;BME280;25997;50.214;19.354;2023-02-12T04:10:58;99251.34;;;3.14;71.27
40285;BME280;25997;50.214;19.354;2023-02-12T04:14:14;99255.94;;;3.18;71.32
40285;BME280;25997;50.214;19.354;2023-02-12T04:17:24;99254.28;;;3.19;71.15
40285;BME280;25997;50.214;19.354;2023-02-12T04:20:31;99255.84;;;3.17;70.62
40285;BME280;25997;50.214;19.354;2023-02-12T04:23:47;99268.13;;;3.08;71.08
40285;BME280;25997;50.214;19.354;2023-02-12T04:26:54;99263.16;;;2.99;71.21
40285;BME280;25997;50.214;19.354;2023-02-12T04:30:04;99269.38;;;3.01;71.14
40285;BME280;25997;50.214;19.354;2023-02-12T04:33:10;99275.13;;;2.97;71.16
40285;BME280;25997;50.214;19.354;2023-02-12T04:36:20;99279.28;;;2.95;71.21
40285;BME280;25997;50.214;19.354;2023-02-12T04:39:25;99283.91;;;2.99;71.23
40285;BME280;25997;50.214;19.354;2023-02-12T04:42:28;99278.63;;;2.98;71.17
40285;BME280;25997;50.214;19.354;2023-02-12T04:45:33;99294.06;;;2.96;71.22
40285;BME280;25997;50.214;19.354;2023-02-12T04:48:47;99288.75;;;2.95;71.33
40285;BME280;25997;50.214;19.354;2023-02-12T04:51:53;99294.72;;;2.94;71.24
40285;BME280;25997;50.214;19.354;2023-02-12T04:54:55;99312.00;;;2.93;71.19
40285;BME280;25997;50.214;19.354;2023-02-12T04:57:58;99311.88;;;2.92;71.26
40285;BME280;25997;50.214;19.354;2023-02-12T05:01:00;99309.72;;;2.86;71.19
40285;BME280;25997;50.214;19.354;2023-02-12T05:04:04;99316.19;;;2.81;71.06
40285;BME280;25997;50.214;19.354;2023-02-12T05:07:09;99316.63;;;2.75;71.00
40285;BME280;25997;50.214;19.354;2023-02-12T05:10:12;99319.78;;;2.71;70.91
40285;BME280;25997;50.214;19.354;2023-02-12T05:13:14;99328.00;;;2.66;70.85
40285;BME280;25997;50.214;19.354;2023-02-12T05:16:18;99331.81;;;2.59;70.82
40285;BME280;25997;50.214;19.354;2023-02-12T05:19:20;99336.50;;;2.53;70.70
40285;BME280;25997;50.214;19.354;2023-02-12T05:22:24;99350.00;;;2.49;70.82
40285;BME280;25997;50.214;19.354;2023-02-12T05:25:27;99348.78;;;2.44;70.61
40285;BME280;25997;50.214;19.354;2023-02-12T05:28:31;99353.44;;;2.38;70.49
40285;BME280;25997;50.214;19.354;2023-02-12T05:31:34;99351.69;;;2.27;70.42
40285;BME280;25997;50.214;19.354;2023-02-12T05:34:37;99368.44;;;2.21;70.50
40285;BME280;25997;50.214;19.354;2023-02-12T05:37:41;99387.38;;;2.20;70.59
40285;BME280;25997;50.214;19.354;2023-02-12T05:40:43;99383.78;;;2.18;70.71
40285;BME280;25997;50.214;19.354;2023-02-12T05:43:46;99388.81;;;2.16;70.76
40285;BME280;25997;50.214;19.354;2023-02-12T05:46:49;99390.47;;;2.16;70.72
40285;BME280;25997;50.214;19.354;2023-02-12T05:49:51;99398.13;;;2.14;70.66
40285;BME280;25997;50.214;19.354;2023-02-12T05:52:55;99412.91;;;2.15;70.31
40285;BME280;25997;50.214;19.354;2023-02-12T05:56:09;99415.25;;;2.12;69.99
40285;BME280;25997;50.214;19.354;2023-02-12T05:59:14;99428.38;;;2.04;70.15
40285;BME280;25997;50.214;19.354;2023-02-12T06:02:17;99429.78;;;2.00;69.99
40285;BME280;25997;50.214;19.354;2023-02-12T06:05:19;99438.09;;;1.96;70.18
40285;BME280;25997;50.214;19.354;2023-02-12T06:08:23;99441.47;;;1.95;69.83
40285;BME280;25997;50.214;19.354;2023-02-12T06:11:26;99439.41;;;1.91;69.78
40285;BME280;25997;50.214;19.354;2023-02-12T06:14:29;99443.84;;;1.82;69.59
40285;BME280;25997;50.214;19.354;2023-02-12T06:17:32;99444.22;;;1.76;69.58
40285;BME280;25997;50.214;19.354;2023-02-12T06:20:37;99448.78;;;1.69;69.23
40285;BME280;25997;50.214;19.354;2023-02-12T06:23:41;99456.03;;;1.63;69.19
40285;BME280;25997;50.214;19.354;2023-02-12T06:26:44;99465.75;;;1.55;68.88
40285;BME280;25997;50.214;19.354;2023-02-12T06:29:47;99470.28;;;1.48;68.73
40285;BME280;25997;50.214;19.354;2023-02-12T06:32:49;99463.69;;;1.41;68.79
40285;BME280;25997;50.214;19.354;2023-02-12T06:35:52;99475.97;;;1.34;68.47
40285;BME280;25997;50.214;19.354;2023-02-12T06:38:56;99475.19;;;1.24;68.72
40285;BME280;25997;50.214;19.354;2023-02-12T06:41:58;99479.09;;;1.19;68.65
40285;BME280;25997;50.214;19.354;2023-02-12T06:45:01;99480.38;;;1.14;68.81
40285;BME280;25997;50.214;19.354;2023-02-12T06:48:04;99484.50;;;1.12;68.76
40285;BME280;25997;50.214;19.354;2023-02-12T06:51:09;99479.44;;;1.04;68.70
40285;BME280;25997;50.214;19.354;2023-02-12T06:54:15;99474.91;;;1.01;68.79
40285;BME280;25997;50.214;19.354;2023-02-12T06:57:18;99483.94;;;0.96;68.86
40285;BME280;25997;50.214;19.354;2023-02-12T07:00:21;99488.97;;;0.85;69.33
40285;BME280;25997;50.214;19.354;2023-02-12T07:03:24;99499.16;;;0.73;69.36
40285;BME280;25997;50.214;19.354;2023-02-12T07:06:28;99499.66;;;0.69;69.46
40285;BME280;25997;50.214;19.354;2023-02-12T07:09:32;99505.72;;;0.70;69.52
40285;BME280;25997;50.214;19.354;2023-02-12T07:12:34;99515.94;;;0.68;69.42
40285;BME280;25997;50.214;19.354;2023-02-12T07:15:38;99515.03;;;0.68;69.57
40285;BME280;25997;50.214;19.354;2023-02-12T07:18:41;99522.28;;;0.72;69.40
40285;BME280;25997;50.214;19.354;2023-02-12T07:21:44;99515.56;;;0.74;69.51
40285;BME280;25997;50.214;19.354;2023-02-12T07:24:48;99513.25;;;0.77;69.00
40285;BME280;25997;50.214;19.354;2023-02-12T07:27:51;99521.91;;;0.77;68.77
40285;BME280;25997;50.214;19.354;2023-02-12T07:30:54;99525.03;;;0.83;68.73
40285;BME280;25997;50.214;19.354;2023-02-12T07:33:58;99520.13;;;0.86;68.67
40285;BME280;25997;50.214;19.354;2023-02-12T07:37:00;99528.78;;;0.87;68.27
40285;BME280;25997;50.214;19.354;2023-02-12T07:40:06;99531.75;;;0.91;68.57
40285;BME280;25997;50.214;19.354;2023-02-12T07:43:09;99549.50;;;0.97;68.30
40285;BME280;25997;50.214;19.354;2023-02-12T07:46:15;99553.81;;;1.06;68.39
40285;BME280;25997;50.214;19.354;2023-02-12T07:49:19;99553.41;;;1.12;68.10
40285;BME280;25997;50.214;19.354;2023-02-12T07:52:22;99564.56;;;1.21;68.17
40285;BME280;25997;50.214;19.354;2023-02-12T07:55:26;99559.03;;;1.27;67.86
40285;BME280;25997;50.214;19.354;2023-02-12T07:58:29;99563.94;;;1.34;67.62
40285;BME280;25997;50.214;19.354;2023-02-12T08:01:32;99557.34;;;1.37;67.18
40285;BME280;25997;50.214;19.354;2023-02-12T08:04:35;99572.47;;;1.43;67.17
40285;BME280;25997;50.214;19.354;2023-02-12T08:07:38;99570.28;;;1.47;66.78
40285;BME280;25997;50.214;19.354;2023-02-12T08:10:42;99579.22;;;1.41;66.10
40285;BME280;25997;50.214;19.354;2023-02-12T08:13:44;99580.00;;;1.50;66.48
40285;BME280;25997;50.214;19.354;2023-02-12T08:16:48;99583.25;;;1.57;66.03
40285;BME280;25997;50.214;19.354;2023-02-12T08:19:51;99586.34;;;1.63;66.16
40285;BME280;25997;50.214;19.354;2023-02-12T08:22:53;99586.75;;;1.68;66.51
40285;BME280;25997;50.214;19.354;2023-02-12T08:26:05;99595.16;;;1.65;65.83
40285;BME280;25997;50.214;19.354;2023-02-12T08:29:10;99592.19;;;1.61;66.12
40285;BME280;25997;50.214;19.354;2023-02-12T08:32:14;99599.78;;;1.49;65.34
40285;BME280;25997;50.214;19.354;2023-02-12T08:35:17;99610.81;;;1.57;65.95
40285;BME280;25997;50.214;19.354;2023-02-12T08:38:19;99607.69;;;1.61;65.58
40285;BME280;25997;50.214;19.354;2023-02-12T08:41:26;99603.97;;;1.77;65.97
40285;BME280;25997;50.214;19.354;2023-02-12T08:44:29;99610.72;;;2.06;65.65
40285;BME280;25997;50.214;19.354;2023-02-12T08:47:31;99617.03;;;2.39;65.87
40285;BME280;25997;50.214;19.354;2023-02-12T08:50:34;99618.81;;;2.50;64.53
40285;BME280;25997;50.214;19.354;2023-02-12T08:53:38;99616.72;;;2.66;63.85
40285;BME280;25997;50.214;19.354;2023-02-12T08:56:42;99617.16;;;2.83;63.61
40285;BME280;25997;50.214;19.354;2023-02-12T08:59:47;99613.97;;;2.75;62.56
40285;BME280;25997;50.214;19.354;2023-02-12T09:02:50;99608.63;;;2.73;62.42
40285;BME280;25997;50.214;19.354;2023-02-12T09:05:52;99626.81;;;2.63;62.43
40285;BME280;25997;50.214;19.354;2023-02-12T09:08:55;99634.91;;;2.46;61.97
40285;BME280;25997;50.214;19.354;2023-02-12T09:11:59;99642.31;;;2.22;61.93
40285;BME280;25997;50.214;19.354;2023-02-12T09:15:01;99643.47;;;2.05;62.38
40285;BME280;25997;50.214;19.354;2023-02-12T09:18:05;99645.94;;;2.04;62.68
40285;BME280;25997;50.214;19.354;2023-02-12T09:21:09;99648.81;;;2.07;62.84
40285;BME280;25997;50.214;19.354;2023-02-12T09:24:12;99647.34;;;2.20;62.98
40285;BME280;25997;50.214;19.354;2023-02-12T09:27:16;99642.44;;;2.33;62.62
40285;BME280;25997;50.214;19.354;2023-02-12T09:30:19;99647.25;;;2.29;61.92
40285;BME280;25997;50.214;19.354;2023-02-12T09:33:21;99644.91;;;2.22;61.86
40285;BME280;25997;50.214;19.354;2023-02-12T09:36:24;99647.34;;;2.20;61.97
40285;BME280;25997;50.214;19.354;2023-02-12T09:39:27;99649.03;;;2.40;62.00
40285;BME280;25997;50.214;19.354;2023-02-12T09:42:47;99651.69;;;2.71;61.85
40285;BME280;25997;50.214;19.354;2023-02-12T09:45:59;99662.63;;;3.09;61.26
40285;BME280;25997;50.214;19.354;2023-02-12T09:49:08;99662.75;;;3.11;60.82
40285;BME280;25997;50.214;19.354;2023-02-12T09:52:13;99659.69;;;2.95;60.67
40285;BME280;25997;50.214;19.354;2023-02-12T09:55:18;99664.38;;;2.79;60.81
40285;BME280;25997;50.214;19.354;2023-02-12T09:58:29;99669.72;;;2.70;60.69
40285;BME280;25997;50.214;19.354;2023-02-12T10:01:32;99678.25;;;2.79;60.92
40285;BME280;25997;50.214;19.354;2023-02-12T10:04:35;99671.75;;;2.94;60.99
40285;BME280;25997;50.214;19.354;2023-02-12T10:07:52;99682.47;;;3.40;60.98
40285;BME280;25997;50.214;19.354;2023-02-12T10:11:12;99682.31;;;3.92;59.51
40285;BME280;25997;50.214;19.354;2023-02-12T10:14:33;99682.47;;;4.39;59.01
40285;BME280;25997;50.214;19.354;2023-02-12T10:17:44;99674.06;;;4.64;59.37
40285;BME280;25997;50.214;19.354;2023-02-12T10:21:02;99682.38;;;4.60;58.46
40285;BME280;25997;50.214;19.354;2023-02-12T10:24:20;99690.09;;;4.59;58.63
40285;BME280;25997;50.214;19.354;2023-02-12T10:27:35;99685.28;;;4.30;58.13
40285;BME280;25997;50.214;19.354;2023-02-12T10:30:44;99695.31;;;4.26;58.87
40285;BME280;25997;50.214;19.354;2023-02-12T10:33:49;99688.78;;;4.31;56.80
40285;BME280;25997;50.214;19.354;2023-02-12T10:36:58;99690.97;;;5.04;60.32
40285;BME280;25997;50.214;19.354;2023-02-12T10:40:18;99684.84;;;5.86;58.78
40285;BME280;25997;50.214;19.354;2023-02-12T10:43:23;99681.91;;;6.56;52.96
40285;BME280;25997;50.214;19.354;2023-02-12T10:46:29;99681.28;;;6.97;56.91
40285;BME280;25997;50.214;19.354;2023-02-12T10:49:32;99680.06;;;6.92;56.97
40285;BME280;25997;50.214;19.354;2023-02-12T10:52:40;99689.22;;;6.48;55.97
40285;BME280;25997;50.214;19.354;2023-02-12T10:55:46;99692.50;;;6.21;56.49
40285;BME280;25997;50.214;19.354;2023-02-12T10:58:56;99695.41;;;6.01;55.76
40285;BME280;25997;50.214;19.354;2023-02-12T11:02:00;99691.56;;;5.96;56.36
40285;BME280;25997;50.214;19.354;2023-02-12T11:05:21;99696.28;;;5.88;55.32
40285;BME280;25997;50.214;19.354;2023-02-12T11:08:30;99701.16;;;5.84;55.78
40285;BME280;25997;50.214;19.354;2023-02-12T11:11:37;99698.13;;;5.78;55.67
40285;BME280;25997;50.214;19.354;2023-02-12T11:14:41;99693.47;;;5.74;54.30
40285;BME280;25997;50.214;19.354;2023-02-12T11:17:57;99691.22;;;6.03;55.13
40285;BME280;25997;50.214;19.354;2023-02-12T11:21:02;99690.06;;;6.73;55.40
40285;BME280;25997;50.214;19.354;2023-02-12T11:24:28;99689.00;;;7.48;50.81
40285;BME280;25997;50.214;19.354;2023-02-12T11:27:31;99686.09;;;7.44;53.67
40285;BME280;25997;50.214;19.354;2023-02-12T11:30:33;99686.72;;;7.40;52.65
40285;BME280;25997;50.214;19.354;2023-02-12T11:33:38;99687.88;;;7.58;52.54
40285;BME280;25997;50.214;19.354;2023-02-12T11:36:42;99687.78;;;7.56;51.54
40285;BME280;25997;50.214;19.354;2023-02-12T11:39:46;99683.88;;;7.37;50.71
40285;BME280;25997;50.214;19.354;2023-02-12T11:42:53;99684.19;;;7.41;51.36
40285;BME280;25997;50.214;19.354;2023-02-12T11:45:58;99685.09;;;7.42;50.44
40285;BME280;25997;50.214;19.354;2023-02-12T11:49:04;99682.16;;;6.85;49.42
40285;BME280;25997;50.214;19.354;2023-02-12T11:52:18;99686.56;;;6.73;50.11
40285;BME280;25997;50.214;19.354;2023-02-12T11:55:24;99691.13;;;7.01;49.67
40285;BME280;25997;50.214;19.354;2023-02-12T11:58:27;99682.81;;;6.56;48.21
40285;BME280;25997;50.214;19.354;2023-02-12T12:01:33;99688.66;;;6.65;49.20
40285;BME280;25997;50.214;19.354;2023-02-12T12:04:40;99688.28;;;7.77;47.54
40285;BME280;25997;50.214;19.354;2023-02-12T12:07:47;99684.88;;;8.48;46.76
40285;BME280;25997;50.214;19.354;2023-02-12T12:10:56;99689.38;;;9.07;46.26
40285;BME280;25997;50.214;19.354;2023-02-12T12:14:03;99684.69;;;9.47;44.97
40285;BME280;25997;50.214;19.354;2023-02-12T12:17:10;99683.91;;;9.34;45.50
40285;BME280;25997;50.214;19.354;2023-02-12T12:20:37;99685.09;;;8.80;45.64
40285;BME280;25997;50.214;19.354;2023-02-12T12:23:43;99685.00;;;8.64;46.41
40285;BME280;25997;50.214;19.354;2023-02-12T12:26:54;99683.00;;;8.60;46.32
40285;BME280;25997;50.214;19.354;2023-02-12T12:30:02;99675.44;;;8.79;46.30
40285;BME280;25997;50.214;19.354;2023-02-12T12:33:14;99676.56;;;8.97;44.49
40285;BME280;25997;50.214;19.354;2023-02-12T12:40:31;99665.69;;;9.51;42.26
40285;BME280;25997;50.214;19.354;2023-02-12T12:43:45;99669.72;;;9.61;44.70
40285;BME280;25997;50.214;19.354;2023-02-12T12:47:09;99667.94;;;10.23;42.91
40285;BME280;25997;50.214;19.354;2023-02-12T12:50:28;99673.78;;;11.17;44.11
40285;BME280;25997;50.214;19.354;2023-02-12T12:53:49;99676.88;;;11.61;41.19
40285;BME280;25997;50.214;19.354;2023-02-12T12:57:04;99679.63;;;11.11;42.73
40285;BME280;25997;50.214;19.354;2023-02-12T13:00:25;99684.91;;;10.61;40.21
40285;BME280;25997;50.214;19.354;2023-02-12T13:07:12;99693.06;;;11.00;41.67
40285;BME280;25997;50.214;19.354;2023-02-12T13:10:28;99690.78;;;10.73;42.07
40285;BME280;25997;50.214;19.354;2023-02-12T13:13:38;99694.44;;;10.27;42.10
40285;BME280;25997;50.214;19.354;2023-02-12T13:16:46;99687.06;;;10.04;41.96
40285;BME280;25997;50.214;19.354;2023-02-12T13:19:56;99694.38;;;9.79;42.58
40285;BME280;25997;50.214;19.354;2023-02-12T13:23:06;99682.97;;;9.48;42.44
40285;BME280;25997;50.214;19.354;2023-02-12T13:26:15;99686.63;;;9.66;42.66
40285;BME280;25997;50.214;19.354;2023-02-12T13:29:26;99684.28;;;9.70;42.66
40285;BME280;25997;50.214;19.354;2023-02-12T13:32:34;99684.47;;;9.13;42.16
40285;BME280;25997;50.214;19.354;2023-02-12T13:35:43;99684.09;;;8.78;42.67
40285;BME280;25997;50.214;19.354;2023-02-12T13:38:52;99689.66;;;8.40;42.81
40285;BME280;25997;50.214;19.354;2023-02-12T13:42:11;99684.34;;;7.83;42.81
40285;BME280;25997;50.214;19.354;2023-02-12T13:45:29;99682.56;;;7.43;43.61
40285;BME280;25997;50.214;19.354;2023-02-12T13:48:46;99689.09;;;7.50;42.50
40285;BME280;25997;50.214;19.354;2023-02-12T13:51:54;99685.69;;;6.85;44.34
40285;BME280;25997;50.214;19.354;2023-02-12T13:55:13;99694.72;;;6.40;44.71
40285;BME280;25997;50.214;19.354;2023-02-12T13:58:38;99698.88;;;6.62;45.10
40285;BME280;25997;50.214;19.354;2023-02-12T14:01:43;99707.88;;;6.79;44.65
40285;BME280;25997;50.214;19.354;2023-02-12T14:04:54;99703.59;;;7.05;44.87
40285;BME280;25997;50.214;19.354;2023-02-12T14:08:00;99715.16;;;7.48;44.04
40285;BME280;25997;50.214;19.354;2023-02-12T14:11:07;99714.13;;;7.72;44.69
40285;BME280;25997;50.214;19.354;2023-02-12T14:14:10;99708.78;;;7.84;42.84
40285;BME280;25997;50.214;19.354;2023-02-12T14:17:50;99701.97;;;7.73;42.96
40285;BME280;25997;50.214;19.354;2023-02-12T14:24:51;99705.72;;;6.11;45.08
40285;BME280;25997;50.214;19.354;2023-02-12T14:27:54;99707.81;;;5.80;46.28
40285;BME280;25997;50.214;19.354;2023-02-12T14:34:45;99717.38;;;5.80;46.06
40285;BME280;25997;50.214;19.354;2023-02-12T14:37:49;99720.03;;;6.04;46.09
40285;BME280;25997;50.214;19.354;2023-02-12T14:40:52;99720.28;;;6.20;45.74
40285;BME280;25997;50.214;19.354;2023-02-12T14:47:51;99720.88;;;6.16;44.90
40285;BME280;25997;50.214;19.354;2023-02-12T14:50:56;99715.66;;;5.80;46.04
40285;BME280;25997;50.214;19.354;2023-02-12T14:53:59;99718.06;;;5.65;46.35
40285;BME280;25997;50.214;19.354;2023-02-12T14:57:06;99710.81;;;5.73;46.56
40285;BME280;25997;50.214;19.354;2023-02-12T15:00:20;99717.69;;;5.84;46.18
40285;BME280;25997;50.214;19.354;2023-02-12T15:03:30;99711.34;;;5.81;46.65
40285;BME280;25997;50.214;19.354;2023-02-12T15:06:38;99724.97;;;5.65;46.65
40285;BME280;25997;50.214;19.354;2023-02-12T15:09:46;99731.59;;;5.48;47.07
40285;BME280;25997;50.214;19.354;2023-02-12T15:13:00;99730.91;;;5.16;47.32
40285;BME280;25997;50.214;19.354;2023-02-12T15:16:07;99729.88;;;5.03;47.70
40285;BME280;25997;50.214;19.354;2023-02-12T15:19:31;99731.34;;;4.87;48.06
40285;BME280;25997;50.214;19.354;2023-02-12T15:22:39;99728.50;;;4.73;48.40
40285;BME280;25997;50.214;19.354;2023-02-12T15:25:42;99740.28;;;4.58;48.67
40285;BME280;25997;50.214;19.354;2023-02-12T15:28:47;99736.31;;;4.40;48.98
40285;BME280;25997;50.214;19.354;2023-02-12T15:31:53;99735.22;;;4.26;49.48
40285;BME280;25997;50.214;19.354;2023-02-12T15:34:57;99744.53;;;4.12;49.88
40285;BME280;25997;50.214;19.354;2023-02-12T15:38:01;99737.06;;;4.05;50.02
40285;BME280;25997;50.214;19.354;2023-02-12T15:41:04;99735.56;;;3.97;50.18
40285;BME280;25997;50.214;19.354;2023-02-12T15:44:19;99740.78;;;3.87;50.37
40285;BME280;25997;50.214;19.354;2023-02-12T15:47:22;99732.03;;;3.75;50.60
40285;BME280;25997;50.214;19.354;2023-02-12T15:50:28;99739.97;;;3.67;50.92
40285;BME280;25997;50.214;19.354;2023-02-12T15:53:34;99739.50;;;3.61;51.07
40285;BME280;25997;50.214;19.354;2023-02-12T15:56:39;99745.78;;;3.53;51.10
40285;BME280;25997;50.214;19.354;2023-02-12T15:59:42;99742.16;;;3.51;51.52
40285;BME280;25997;50.214;19.354;2023-02-12T16:02:51;99742.28;;;3.52;51.46
40285;BME280;25997;50.214;19.354;2023-02-12T16:05:59;99735.94;;;3.49;51.71
40285;BME280;25997;50.214;19.354;2023-02-12T16:09:06;99737.72;;;3.50;52.11
40285;BME280;25997;50.214;19.354;2023-02-12T16:12:13;99742.00;;;3.49;52.06
40285;BME280;25997;50.214;19.354;2023-02-12T16:15:24;99750.81;;;3.51;52.31
40285;BME280;25997;50.214;19.354;2023-02-12T16:18:27;99754.47;;;3.53;52.41
40285;BME280;25997;50.214;19.354;2023-02-12T16:21:30;99761.91;;;3.49;52.29
40285;BME280;25997;50.214;19.354;2023-02-12T16:24:37;99764.63;;;3.40;52.09
40285;BME280;25997;50.214;19.354;2023-02-12T16:27:40;99766.63;;;3.22;52.22
40285;BME280;25997;50.214;19.354;2023-02-12T16:30:44;99766.94;;;3.05;52.44
40285;BME280;25997;50.214;19.354;2023-02-12T16:33:49;99764.09;;;2.82;52.78
40285;BME280;25997;50.214;19.354;2023-02-12T16:36:53;99763.97;;;2.60;52.93
40285;BME280;25997;50.214;19.354;2023-02-12T16:40:19;99756.44;;;2.43;53.14
40285;BME280;25997;50.214;19.354;2023-02-12T16:43:24;99754.59;;;2.22;53.19
40285;BME280;25997;50.214;19.354;2023-02-12T16:46:28;99755.38;;;2.01;53.50
40285;BME280;25997;50.214;19.354;2023-02-12T16:49:32;99752.50;;;1.88;53.74